createdAt,value
2018-02-11T11:44:57.453Z,99150.08
2018-02-11T11:48:13.620Z,99149.14
2018-02-11T11:51:25.292Z,99149.84
2018-02-11T11:54:32.345Z,99150.98
2018-02-11T11:57:49.830Z,99150.91
2018-02-11T12:01:17.295Z,99145.28
2018-02-11T12:04:37.095Z,99151.55
2018-02-11T12:08:11.023Z,99148.87
2018-02-11T12:11:36.938Z,99148.87
2018-02-11T12:15:00.041Z,99143.72
2018-02-11T12:18:16.271Z,99141.09
2018-02-11T12:21:29.630Z,99138.47
2018-02-11T12:24:51.073Z,99141.73
2018-02-11T12:28:17.225Z,99128.58
2018-02-11T12:31:39.030Z,99132.66
2018-02-11T12:34:53.035Z,99127.45
2018-02-11T12:38:12.105Z,99122.29
2018-02-11T12:41:31.481Z,99127.29
2018-02-11T12:44:46.023Z,99125.48
2018-02-11T12:48:02.487Z,99125.33
2018-02-11T12:51:38.396Z,99127.39
2018-02-11T12:54:57.240Z,99130.20
2018-02-11T12:58:18.207Z,99130.05
2018-02-11T13:05:18.299Z,99128.25
2018-02-11T13:08:51.384Z,99132.83
2018-02-11T13:12:16.751Z,99134.41
2018-02-11T13:15:51.075Z,99138.09
2018-02-11T13:19:08.891Z,99138.88
2018-02-11T13:22:33.268Z,99138.40
2018-02-11T13:29:12.742Z,99140.30
2018-02-11T13:32:34.823Z,99140.30
2018-02-11T13:35:53.231Z,99140.67
2018-02-11T13:39:03.771Z,99146.50
2018-02-11T13:42:14.257Z,99151.12
2018-02-11T13:45:24.833Z,99141.72
2018-02-11T13:48:36.717Z,99154.34
2018-02-11T13:51:55.988Z,99154.66
2018-02-11T13:55:22.385Z,99144.94
2018-02-11T13:58:41.566Z,99140.25
2018-02-11T14:02:03.376Z,99151.21
2018-02-11T14:05:25.420Z,99157.89
2018-02-11T14:08:39.453Z,99153.14
2018-02-11T14:11:49.225Z,99150.60
2018-02-11T14:14:59.093Z,99150.13
2018-02-11T14:18:05.437Z,99149.27
2018-02-11T14:21:27.489Z,99152.22
2018-02-11T14:24:33.876Z,99150.03
2018-02-11T14:27:45.374Z,99148.31
2018-02-11T14:30:53.060Z,99153.35
2018-02-11T14:34:04.334Z,99152.94
2018-02-11T14:37:14.793Z,99158.80
2018-02-11T14:40:25.993Z,99165.45
2018-02-11T14:43:37.131Z,99161.33
2018-02-11T14:46:45.034Z,99170.55
2018-02-11T14:49:52.870Z,99165.48
2018-02-11T14:53:00.557Z,99168.77
2018-02-11T14:56:08.152Z,99165.41
2018-02-11T14:59:21.106Z,99160.34
2018-02-11T15:02:29.724Z,99164.59
2018-02-11T15:05:39.239Z,99153.53
2018-02-11T15:08:53.320Z,99164.11
2018-02-11T15:12:03.817Z,99162.02
2018-02-11T15:15:27.368Z,99160.79
2018-02-11T15:18:57.094Z,99164.66
2018-02-11T15:22:10.182Z,99172.19
2018-02-11T15:25:18.502Z,99166.75
2018-02-11T15:28:32.883Z,99167.56
2018-02-11T15:31:41.447Z,99180.20
2018-02-11T15:34:49.299Z,99181.91
2018-02-11T15:37:59.053Z,99185.20
2018-02-11T15:41:09.803Z,99180.17
2018-02-11T15:44:17.553Z,99184.45
2018-02-11T15:47:32.872Z,99178.94
2018-02-11T15:54:19.857Z,99191.58
2018-02-11T15:57:39.757Z,99193.28
2018-02-11T16:01:21.914Z,99196.67
2018-02-11T16:04:42.193Z,99198.83
2018-02-11T16:08:01.471Z,99199.27
2018-02-11T16:11:28.560Z,99196.73
2018-02-11T16:14:49.302Z,99195.88
2018-02-11T16:18:12.600Z,99203.11
2018-02-11T16:21:32.383Z,99209.56
2018-02-11T16:24:41.692Z,99229.02
2018-02-11T16:27:52.703Z,99223.19
2018-02-11T16:31:32.898Z,99225.72
2018-02-11T16:34:56.903Z,99232.46
2018-02-11T16:38:17.928Z,99239.36
2018-02-11T16:41:32.372Z,99234.80
2018-02-11T16:44:54.556Z,99234.45
2018-02-11T16:48:13.704Z,99236.20
2018-02-11T16:51:37.167Z,99228.25
2018-02-11T16:55:02.548Z,99228.69
2018-02-11T16:58:18.333Z,99234.17
2018-02-11T17:01:35.650Z,99232.52
2018-02-11T17:04:46.266Z,99232.11
2018-02-11T17:08:01.358Z,99238.47
2018-02-11T17:11:10.973Z,99242.71
2018-02-11T17:14:17.929Z,99241.92
2018-02-11T17:17:26.033Z,99237.70
2018-02-11T17:20:38.628Z,99237.65
2018-02-11T17:23:51.186Z,99235.17
2018-02-11T17:27:01.924Z,99245.34
2018-02-11T17:30:14.335Z,99246.20
2018-02-11T17:33:32.558Z,99242.45
2018-02-11T17:36:41.325Z,99249.70
2018-02-11T17:39:52.356Z,99248.02
2018-02-11T17:43:12.440Z,99261.55
2018-02-11T17:46:28.562Z,99264.55
2018-02-11T17:49:49.000Z,99266.28
2018-02-11T17:53:10.522Z,99268.81
2018-02-11T17:56:27.685Z,99279.01
2018-02-11T17:59:38.299Z,99284.19
2018-02-11T18:03:06.689Z,99280.42
2018-02-11T18:06:20.587Z,99278.02
2018-02-11T18:09:31.263Z,99270.83
2018-02-11T18:12:40.853Z,99278.80
2018-02-11T18:15:55.860Z,99297.44
2018-02-11T18:19:07.525Z,99299.50
2018-02-11T18:22:18.337Z,99300.80
2018-02-11T18:25:31.247Z,99310.58
2018-02-11T18:28:46.926Z,99316.88
2018-02-11T18:32:00.097Z,99324.03
2018-02-11T18:35:08.969Z,99326.12
2018-02-11T18:38:18.246Z,99323.64
2018-02-11T18:41:26.929Z,99332.06
2018-02-11T18:44:39.136Z,99340.98
2018-02-11T18:47:54.486Z,99345.61
2018-02-11T18:51:04.354Z,99347.26
2018-02-11T18:54:16.842Z,99347.20
2018-02-11T18:57:27.539Z,99346.44
2018-02-11T19:00:37.646Z,99350.26
2018-02-11T19:03:49.713Z,99355.77
2018-02-11T19:06:59.114Z,99358.30
2018-02-11T19:10:09.420Z,99359.53
2018-02-11T19:13:18.461Z,99359.09
2018-02-11T19:16:29.764Z,99363.33
2018-02-11T19:19:40.868Z,99370.52
2018-02-11T19:22:59.653Z,99371.38
2018-02-11T19:26:17.050Z,99375.20
2018-02-11T19:29:27.774Z,99380.76
2018-02-11T19:32:39.020Z,99382.84
2018-02-11T19:35:47.003Z,99382.47
2018-02-11T19:38:56.309Z,99377.45
2018-02-11T19:42:10.369Z,99386.32
2018-02-11T19:45:19.164Z,99386.34
2018-02-11T19:48:31.532Z,99395.23
2018-02-11T19:51:49.942Z,99394.00
2018-02-11T19:55:16.308Z,99404.59
2018-02-11T19:58:42.149Z,99413.04
2018-02-11T20:02:21.213Z,99412.66
2018-02-11T20:05:41.668Z,99416.45
2018-02-11T20:09:08.986Z,99418.57
2018-02-11T20:12:43.178Z,99436.32
2018-02-11T20:16:02.282Z,99444.36
2018-02-11T20:19:28.980Z,99441.83
2018-02-11T20:22:56.194Z,99438.05
2018-02-11T20:26:24.349Z,99440.17
2018-02-11T20:29:42.926Z,99440.23
2018-02-11T20:33:02.828Z,99437.37
2018-02-11T20:36:10.255Z,99442.88
2018-02-11T20:39:15.801Z,99437.42
2018-02-11T20:42:21.366Z,99444.60
2018-02-11T20:45:26.929Z,99448.81
2018-02-11T20:48:32.698Z,99450.10
2018-02-11T20:51:38.242Z,99450.52
2018-02-11T20:54:43.773Z,99446.80
2018-02-11T20:57:50.181Z,99444.27
2018-02-11T21:00:57.696Z,99443.88
2018-02-11T21:04:17.230Z,99436.78
2018-02-11T21:07:57.751Z,99440.22
2018-02-11T21:11:09.439Z,99448.66
2018-02-11T21:14:19.540Z,99455.43
2018-02-11T21:17:25.687Z,99449.19
2018-02-11T21:20:31.375Z,99452.56
2018-02-11T21:23:36.915Z,99453.44
2018-02-11T21:26:42.265Z,99449.26
2018-02-11T21:29:47.829Z,99446.73
2018-02-11T21:32:53.329Z,99465.34
2018-02-11T21:35:58.857Z,99454.45
2018-02-11T21:39:03.926Z,99465.51
2018-02-11T21:42:09.478Z,99462.56
2018-02-11T21:45:15.013Z,99468.06
2018-02-11T21:48:20.557Z,99474.41
2018-02-11T21:51:26.048Z,99474.86
2018-02-11T21:54:31.576Z,99474.52
2018-02-11T21:57:37.065Z,99474.08
2018-02-11T22:00:46.087Z,99473.72
2018-02-11T22:03:51.636Z,99478.86
2018-02-11T22:06:57.168Z,99473.77
2018-02-11T22:10:02.718Z,99475.09
2018-02-11T22:13:08.266Z,99483.16
2018-02-11T22:16:13.801Z,99494.97
2018-02-11T22:19:19.293Z,99489.10
2018-02-11T22:22:24.822Z,99493.31
2018-02-11T22:25:30.410Z,99501.67
2018-02-11T22:28:35.948Z,99504.74
2018-02-11T22:31:41.475Z,99499.66
2018-02-11T22:34:47.012Z,99493.38
2018-02-11T22:37:52.597Z,99496.35
2018-02-11T22:40:58.090Z,99513.20
2018-02-11T22:44:03.652Z,99514.16
2018-02-11T22:47:09.153Z,99513.36
2018-02-11T22:50:14.693Z,99515.09
2018-02-11T22:53:20.176Z,99515.16
2018-02-11T22:56:25.714Z,99510.53
2018-02-11T22:59:31.202Z,99515.18
2018-02-11T23:02:36.745Z,99520.66
2018-02-11T23:05:42.238Z,99516.88
2018-02-11T23:08:47.772Z,99529.60
2018-02-11T23:11:53.273Z,99526.66
2018-02-11T23:14:58.805Z,99522.48
2018-02-11T23:18:04.304Z,99531.41
2018-02-11T23:21:09.841Z,99538.55
2018-02-11T23:24:15.349Z,99536.90
2018-02-11T23:27:20.887Z,99539.04
2018-02-11T23:30:26.395Z,99542.38
2018-02-11T23:33:31.945Z,99539.48
2018-02-11T23:36:37.437Z,99543.32
2018-02-11T23:39:42.990Z,99537.84
2018-02-11T23:42:48.482Z,99550.95
2018-02-11T23:45:54.034Z,99562.38
2018-02-11T23:48:59.537Z,99565.70
2018-02-11T23:52:05.080Z,99558.68
2018-02-11T23:55:10.573Z,99567.14
2018-02-11T23:58:16.112Z,99572.56
